sensor_id;sensor_type;location;lat;lon;timestamp;temperature;humidity
77523;SHT31;66637;-29.628;-49.938;2024-01-15T00:00:40;23.40;91.00
77523;SHT31;66637;-29.628;-49.938;2024-01-15T00:03:21;23.50;91.02
77523;SHT31;66637;-29.628;-49.938;2024-01-15T00:06:01;23.53;90.79
77523;SHT31;66637;-29.628;-49.938;2024-01-15T00:08:32;23.55;90.86
77523;SHT31;66637;-29.628;-49.938;2024-01-15T00:11:04;23.55;90.67
77523;SHT31;66637;-29.628;-49.938;2024-01-15T00:13:39;23.55;90.81
77523;SHT31;66637;-29.628;-49.938;2024-01-15T00:16:13;23.53;91.04
77523;SHT31;66637;-29.628;-49.938;2024-01-15T00:19:16;23.54;91.23
77523;SHT31;66637;-29.628;-49.938;2024-01-15T00:22:44;23.69;91.08
77523;SHT31;66637;-29.628;-49.938;2024-01-15T00:25:42;23.75;91.04
77523;SHT31;66637;-29.628;-49.938;2024-01-15T00:28:23;23.75;91.13
77523;SHT31;66637;-29.628;-49.938;2024-01-15T00:31:07;23.69;91.16
77523;SHT31;66637;-29.628;-49.938;2024-01-15T00:33:47;23.58;91.30
77523;SHT31;66637;-29.628;-49.938;2024-01-15T00:36:18;23.54;91.31
77523;SHT31;66637;-29.628;-49.938;2024-01-15T00:38:55;23.48;91.36
77523;SHT31;66637;-29.628;-49.938;2024-01-15T00:41:38;23.48;91.54
77523;SHT31;66637;-29.628;-49.938;2024-01-15T00:44:42;23.50;91.53
77523;SHT31;66637;-29.628;-49.938;2024-01-15T00:47:39;23.47;91.66
77523;SHT31;66637;-29.628;-49.938;2024-01-15T00:50:16;23.53;91.70
77523;SHT31;66637;-29.628;-49.938;2024-01-15T00:53:09;23.57;91.63
77523;SHT31;66637;-29.628;-49.938;2024-01-15T00:56:09;23.61;91.58
77523;SHT31;66637;-29.628;-49.938;2024-01-15T00:58:55;23.54;91.70
77523;SHT31;66637;-29.628;-49.938;2024-01-15T01:01:31;23.57;91.64
77523;SHT31;66637;-29.628;-49.938;2024-01-15T01:04:02;23.58;91.59
77523;SHT31;66637;-29.628;-49.938;2024-01-15T01:06:32;23.64;91.45
77523;SHT31;66637;-29.628;-49.938;2024-01-15T01:09:22;23.62;91.43
77523;SHT31;66637;-29.628;-49.938;2024-01-15T01:12:29;23.61;91.47
77523;SHT31;66637;-29.628;-49.938;2024-01-15T01:15:16;23.65;91.46
77523;SHT31;66637;-29.628;-49.938;2024-01-15T01:17:49;23.72;91.31
77523;SHT31;66637;-29.628;-49.938;2024-01-15T01:20:21;23.75;91.29
77523;SHT31;66637;-29.628;-49.938;2024-01-15T01:22:51;23.79;91.22
77523;SHT31;66637;-29.628;-49.938;2024-01-15T01:25:23;23.84;91.09
77523;SHT31;66637;-29.628;-49.938;2024-01-15T01:27:55;23.85;91.12
77523;SHT31;66637;-29.628;-49.938;2024-01-15T01:30:31;23.85;91.05
77523;SHT31;66637;-29.628;-49.938;2024-01-15T01:33:06;23.88;91.04
77523;SHT31;66637;-29.628;-49.938;2024-01-15T01:35:48;23.92;90.98
77523;SHT31;66637;-29.628;-49.938;2024-01-15T01:38:27;23.95;90.83
77523;SHT31;66637;-29.628;-49.938;2024-01-15T01:41:07;23.99;90.75
77523;SHT31;66637;-29.628;-49.938;2024-01-15T01:44:11;23.98;90.63
77523;SHT31;66637;-29.628;-49.938;2024-01-15T01:47:10;24.01;90.61
77523;SHT31;66637;-29.628;-49.938;2024-01-15T01:49:43;24.01;90.63
77523;SHT31;66637;-29.628;-49.938;2024-01-15T01:52:47;24.02;90.54
77523;SHT31;66637;-29.628;-49.938;2024-01-15T01:55:50;24.04;90.43
77523;SHT31;66637;-29.628;-49.938;2024-01-15T01:58:40;24.06;90.29
77523;SHT31;66637;-29.628;-49.938;2024-01-15T02:01:33;24.13;90.22
77523;SHT31;66637;-29.628;-49.938;2024-01-15T02:04:17;24.15;90.25
77523;SHT31;66637;-29.628;-49.938;2024-01-15T02:07:04;24.15;90.11
77523;SHT31;66637;-29.628;-49.938;2024-01-15T02:09:37;24.16;90.16
77523;SHT31;66637;-29.628;-49.938;2024-01-15T02:12:19;24.13;89.95
77523;SHT31;66637;-29.628;-49.938;2024-01-15T02:15:04;24.09;90.10
77523;SHT31;66637;-29.628;-49.938;2024-01-15T02:20:39;24.08;89.88
77523;SHT31;66637;-29.628;-49.938;2024-01-15T02:23:16;24.04;89.95
77523;SHT31;66637;-29.628;-49.938;2024-01-15T02:25:49;23.96;89.98
77523;SHT31;66637;-29.628;-49.938;2024-01-15T02:28:20;23.94;90.02
77523;SHT31;66637;-29.628;-49.938;2024-01-15T02:30:56;23.90;89.88
77523;SHT31;66637;-29.628;-49.938;2024-01-15T02:33:29;23.95;89.89
77523;SHT31;66637;-29.628;-49.938;2024-01-15T02:36:00;23.92;89.96
77523;SHT31;66637;-29.628;-49.938;2024-01-15T02:38:32;23.94;89.98
77523;SHT31;66637;-29.628;-49.938;2024-01-15T02:41:04;23.92;89.80
77523;SHT31;66637;-29.628;-49.938;2024-01-15T02:43:36;23.92;89.87
77523;SHT31;66637;-29.628;-49.938;2024-01-15T02:46:07;23.92;89.74
77523;SHT31;66637;-29.628;-49.938;2024-01-15T02:48:38;23.95;89.63
77523;SHT31;66637;-29.628;-49.938;2024-01-15T02:51:08;23.98;89.66
77523;SHT31;66637;-29.628;-49.938;2024-01-15T02:53:39;23.96;89.72
77523;SHT31;66637;-29.628;-49.938;2024-01-15T02:56:09;23.99;89.73
77523;SHT31;66637;-29.628;-49.938;2024-01-15T02:58:41;23.95;89.81
77523;SHT31;66637;-29.628;-49.938;2024-01-15T03:01:11;23.95;89.77
77523;SHT31;66637;-29.628;-49.938;2024-01-15T03:03:42;23.94;89.78
77523;SHT31;66637;-29.628;-49.938;2024-01-15T03:06:17;23.90;89.72
77523;SHT31;66637;-29.628;-49.938;2024-01-15T03:08:49;23.92;89.80
77523;SHT31;66637;-29.628;-49.938;2024-01-15T03:11:23;23.85;89.78
77523;SHT31;66637;-29.628;-49.938;2024-01-15T03:13:56;23.81;89.84
77523;SHT31;66637;-29.628;-49.938;2024-01-15T03:16:27;23.78;89.82
77523;SHT31;66637;-29.628;-49.938;2024-01-15T03:18:59;23.72;89.69
77523;SHT31;66637;-29.628;-49.938;2024-01-15T03:21:30;23.65;89.95
77523;SHT31;66637;-29.628;-49.938;2024-01-15T03:24:01;23.59;89.96
77523;SHT31;66637;-29.628;-49.938;2024-01-15T03:26:31;23.53;90.22
77523;SHT31;66637;-29.628;-49.938;2024-01-15T03:29:01;23.48;90.47
77523;SHT31;66637;-29.628;-49.938;2024-01-15T03:31:31;23.47;90.66
77523;SHT31;66637;-29.628;-49.938;2024-01-15T03:34:02;23.43;90.80
77523;SHT31;66637;-29.628;-49.938;2024-01-15T03:36:34;23.40;90.85
77523;SHT31;66637;-29.628;-49.938;2024-01-15T03:39:06;23.37;91.10
77523;SHT31;66637;-29.628;-49.938;2024-01-15T03:41:39;23.37;90.99
77523;SHT31;66637;-29.628;-49.938;2024-01-15T03:44:11;23.35;91.02
77523;SHT31;66637;-29.628;-49.938;2024-01-15T03:46:45;23.37;91.11
77523;SHT31;66637;-29.628;-49.938;2024-01-15T03:49:18;23.33;91.12
77523;SHT31;66637;-29.628;-49.938;2024-01-15T03:51:49;23.31;91.16
77523;SHT31;66637;-29.628;-49.938;2024-01-15T03:54:29;23.34;91.05
77523;SHT31;66637;-29.628;-49.938;2024-01-15T03:56:59;23.34;91.20
77523;SHT31;66637;-29.628;-49.938;2024-01-15T03:59:40;23.37;91.17
77523;SHT31;66637;-29.628;-49.938;2024-01-15T04:02:57;23.35;91.22
77523;SHT31;66637;-29.628;-49.938;2024-01-15T04:05:42;23.40;91.17
77523;SHT31;66637;-29.628;-49.938;2024-01-15T04:08:19;23.38;91.15
77523;SHT31;66637;-29.628;-49.938;2024-01-15T04:10:56;23.37;91.13
77523;SHT31;66637;-29.628;-49.938;2024-01-15T04:13:34;23.35;90.99
77523;SHT31;66637;-29.628;-49.938;2024-01-15T04:16:19;23.34;90.95
77523;SHT31;66637;-29.628;-49.938;2024-01-15T04:18:54;23.38;90.98
77523;SHT31;66637;-29.628;-49.938;2024-01-15T04:21:24;23.38;90.91
77523;SHT31;66637;-29.628;-49.938;2024-01-15T04:23:57;23.38;90.93
77523;SHT31;66637;-29.628;-49.938;2024-01-15T04:26:32;23.38;90.91
77523;SHT31;66637;-29.628;-49.938;2024-01-15T04:29:06;23.44;90.84
77523;SHT31;66637;-29.628;-49.938;2024-01-15T04:31:41;23.45;90.80
77523;SHT31;66637;-29.628;-49.938;2024-01-15T04:34:13;23.45;90.77
77523;SHT31;66637;-29.628;-49.938;2024-01-15T04:36:45;23.48;90.83
77523;SHT31;66637;-29.628;-49.938;2024-01-15T04:39:17;23.45;90.82
77523;SHT31;66637;-29.628;-49.938;2024-01-15T04:41:47;23.48;90.71
77523;SHT31;66637;-29.628;-49.938;2024-01-15T04:44:18;23.51;90.56
77523;SHT31;66637;-29.628;-49.938;2024-01-15T04:46:50;23.53;90.59
77523;SHT31;66637;-29.628;-49.938;2024-01-15T04:49:22;23.54;90.54
77523;SHT31;66637;-29.628;-49.938;2024-01-15T04:51:56;23.51;90.36
77523;SHT31;66637;-29.628;-49.938;2024-01-15T04:54:26;23.50;90.33
77523;SHT31;66637;-29.628;-49.938;2024-01-15T04:56:58;23.47;90.35
77523;SHT31;66637;-29.628;-49.938;2024-01-15T04:59:29;23.48;90.43
77523;SHT31;66637;-29.628;-49.938;2024-01-15T05:02:00;23.41;91.36
77523;SHT31;66637;-29.628;-49.938;2024-01-15T05:04:30;23.43;91.40
77523;SHT31;66637;-29.628;-49.938;2024-01-15T05:07:03;23.41;91.42
77523;SHT31;66637;-29.628;-49.938;2024-01-15T05:09:34;23.40;91.46
77523;SHT31;66637;-29.628;-49.938;2024-01-15T05:12:05;23.38;91.52
77523;SHT31;66637;-29.628;-49.938;2024-01-15T05:14:37;23.37;91.60
77523;SHT31;66637;-29.628;-49.938;2024-01-15T05:17:08;23.34;91.73
77523;SHT31;66637;-29.628;-49.938;2024-01-15T05:19:39;23.30;91.71
77523;SHT31;66637;-29.628;-49.938;2024-01-15T05:22:11;23.28;91.74
77523;SHT31;66637;-29.628;-49.938;2024-01-15T05:24:43;23.27;91.78
77523;SHT31;66637;-29.628;-49.938;2024-01-15T05:27:15;23.21;91.71
77523;SHT31;66637;-29.628;-49.938;2024-01-15T05:30:04;23.21;91.67
77523;SHT31;66637;-29.628;-49.938;2024-01-15T05:32:40;23.24;91.74
77523;SHT31;66637;-29.628;-49.938;2024-01-15T05:35:12;23.24;91.75
77523;SHT31;66637;-29.628;-49.938;2024-01-15T05:37:47;23.25;91.91
77523;SHT31;66637;-29.628;-49.938;2024-01-15T05:40:27;23.31;91.28
77523;SHT31;66637;-29.628;-49.938;2024-01-15T05:43:02;23.30;91.74
77523;SHT31;66637;-29.628;-49.938;2024-01-15T05:45:35;23.33;91.66
77523;SHT31;66637;-29.628;-49.938;2024-01-15T05:48:12;23.31;91.52
77523;SHT31;66637;-29.628;-49.938;2024-01-15T05:50:48;23.34;91.56
77523;SHT31;66637;-29.628;-49.938;2024-01-15T05:53:24;23.35;91.53
77523;SHT31;66637;-29.628;-49.938;2024-01-15T05:55:56;23.35;91.32
77523;SHT31;66637;-29.628;-49.938;2024-01-15T05:58:33;23.33;91.33
77523;SHT31;66637;-29.628;-49.938;2024-01-15T06:01:10;23.40;91.05
77523;SHT31;66637;-29.628;-49.938;2024-01-15T06:03:47;23.44;91.08
77523;SHT31;66637;-29.628;-49.938;2024-01-15T06:06:24;23.47;91.13
77523;SHT31;66637;-29.628;-49.938;2024-01-15T06:08:59;23.51;91.12
77523;SHT31;66637;-29.628;-49.938;2024-01-15T06:11:34;23.55;90.85
77523;SHT31;66637;-29.628;-49.938;2024-01-15T06:14:04;23.53;91.07
77523;SHT31;66637;-29.628;-49.938;2024-01-15T06:16:37;23.53;91.00
77523;SHT31;66637;-29.628;-49.938;2024-01-15T06:19:08;23.57;90.87
77523;SHT31;66637;-29.628;-49.938;2024-01-15T06:21:38;23.62;90.67
77523;SHT31;66637;-29.628;-49.938;2024-01-15T06:24:11;23.61;90.49
77523;SHT31;66637;-29.628;-49.938;2024-01-15T06:26:43;23.65;90.52
77523;SHT31;66637;-29.628;-49.938;2024-01-15T06:29:14;23.65;90.35
77523;SHT31;66637;-29.628;-49.938;2024-01-15T06:31:50;23.68;90.40
77523;SHT31;66637;-29.628;-49.938;2024-01-15T06:34:20;23.71;90.31
77523;SHT31;66637;-29.628;-49.938;2024-01-15T06:37:00;23.68;89.85
77523;SHT31;66637;-29.628;-49.938;2024-01-15T06:39:32;23.74;89.42
77523;SHT31;66637;-29.628;-49.938;2024-01-15T06:42:03;23.76;89.19
77523;SHT31;66637;-29.628;-49.938;2024-01-15T06:44:34;23.81;89.08
77523;SHT31;66637;-29.628;-49.938;2024-01-15T06:47:06;23.82;88.92
77523;SHT31;66637;-29.628;-49.938;2024-01-15T06:49:37;23.88;88.67
77523;SHT31;66637;-29.628;-49.938;2024-01-15T06:52:07;23.88;88.56
77523;SHT31;66637;-29.628;-49.938;2024-01-15T06:54:38;23.88;88.23
77523;SHT31;66637;-29.628;-49.938;2024-01-15T06:57:08;23.92;87.89
77523;SHT31;66637;-29.628;-49.938;2024-01-15T06:59:38;23.94;87.70
77523;SHT31;66637;-29.628;-49.938;2024-01-15T07:02:09;23.96;87.63
77523;SHT31;66637;-29.628;-49.938;2024-01-15T07:04:39;24.01;87.72
77523;SHT31;66637;-29.628;-49.938;2024-01-15T07:07:11;23.99;88.09
77523;SHT31;66637;-29.628;-49.938;2024-01-15T07:09:41;23.98;88.02
77523;SHT31;66637;-29.628;-49.938;2024-01-15T07:12:12;23.99;87.79
77523;SHT31;66637;-29.628;-49.938;2024-01-15T07:14:44;24.02;87.44
77523;SHT31;66637;-29.628;-49.938;2024-01-15T07:21:00;24.13;86.95
77523;SHT31;66637;-29.628;-49.938;2024-01-15T07:23:31;24.22;86.56
77523;SHT31;66637;-29.628;-49.938;2024-01-15T07:26:02;24.25;86.12
77523;SHT31;66637;-29.628;-49.938;2024-01-15T07:28:32;24.29;86.15
77523;SHT31;66637;-29.628;-49.938;2024-01-15T07:31:03;24.30;86.19
77523;SHT31;66637;-29.628;-49.938;2024-01-15T07:33:34;24.28;86.07
77523;SHT31;66637;-29.628;-49.938;2024-01-15T07:36:06;24.26;86.03
77523;SHT31;66637;-29.628;-49.938;2024-01-15T07:38:36;24.25;86.12
77523;SHT31;66637;-29.628;-49.938;2024-01-15T07:41:07;24.22;86.38
77523;SHT31;66637;-29.628;-49.938;2024-01-15T07:43:39;24.23;86.25
77523;SHT31;66637;-29.628;-49.938;2024-01-15T07:46:09;24.19;86.25
77523;SHT31;66637;-29.628;-49.938;2024-01-15T07:48:39;24.19;86.35
77523;SHT31;66637;-29.628;-49.938;2024-01-15T07:51:10;24.15;86.41
77523;SHT31;66637;-29.628;-49.938;2024-01-15T07:53:42;24.15;87.21
77523;SHT31;66637;-29.628;-49.938;2024-01-15T07:56:12;24.09;86.69
77523;SHT31;66637;-29.628;-49.938;2024-01-15T07:58:44;24.01;86.98
77523;SHT31;66637;-29.628;-49.938;2024-01-15T08:01:15;24.01;87.22
77523;SHT31;66637;-29.628;-49.938;2024-01-15T08:03:46;24.01;87.27
77523;SHT31;66637;-29.628;-49.938;2024-01-15T08:06:17;23.99;87.78
77523;SHT31;66637;-29.628;-49.938;2024-01-15T08:08:48;23.92;87.57
77523;SHT31;66637;-29.628;-49.938;2024-01-15T08:11:19;23.88;87.64
77523;SHT31;66637;-29.628;-49.938;2024-01-15T08:13:50;23.85;87.89
77523;SHT31;66637;-29.628;-49.938;2024-01-15T08:16:21;23.89;88.24
77523;SHT31;66637;-29.628;-49.938;2024-01-15T08:18:56;23.94;88.29
77523;SHT31;66637;-29.628;-49.938;2024-01-15T08:21:36;23.92;88.18
77523;SHT31;66637;-29.628;-49.938;2024-01-15T08:24:08;23.89;88.18
77523;SHT31;66637;-29.628;-49.938;2024-01-15T08:26:39;23.90;87.94
77523;SHT31;66637;-29.628;-49.938;2024-01-15T08:29:10;23.82;87.51
77523;SHT31;66637;-29.628;-49.938;2024-01-15T08:31:42;23.90;87.06
77523;SHT31;66637;-29.628;-49.938;2024-01-15T08:34:14;23.92;86.77
77523;SHT31;66637;-29.628;-49.938;2024-01-15T08:36:45;23.84;86.86
77523;SHT31;66637;-29.628;-49.938;2024-01-15T08:39:17;23.84;86.77
77523;SHT31;66637;-29.628;-49.938;2024-01-15T08:41:50;23.88;86.58
77523;SHT31;66637;-29.628;-49.938;2024-01-15T08:44:20;23.89;86.37
77523;SHT31;66637;-29.628;-49.938;2024-01-15T08:46:52;23.88;86.23
77523;SHT31;66637;-29.628;-49.938;2024-01-15T08:49:22;23.88;86.39
77523;SHT31;66637;-29.628;-49.938;2024-01-15T08:51:52;23.89;86.18
77523;SHT31;66637;-29.628;-49.938;2024-01-15T08:54:23;23.94;85.90
77523;SHT31;66637;-29.628;-49.938;2024-01-15T08:56:53;23.94;85.82
77523;SHT31;66637;-29.628;-49.938;2024-01-15T08:59:24;23.99;85.61
77523;SHT31;66637;-29.628;-49.938;2024-01-15T09:01:55;23.99;85.32
77523;SHT31;66637;-29.628;-49.938;2024-01-15T09:04:26;23.98;85.33
77523;SHT31;66637;-29.628;-49.938;2024-01-15T09:06:57;23.96;85.24
77523;SHT31;66637;-29.628;-49.938;2024-01-15T09:09:27;24.10;85.55
77523;SHT31;66637;-29.628;-49.938;2024-01-15T09:11:57;24.20;85.98
77523;SHT31;66637;-29.628;-49.938;2024-01-15T09:14:27;24.30;85.66
77523;SHT31;66637;-29.628;-49.938;2024-01-15T09:17:05;24.37;85.24
77523;SHT31;66637;-29.628;-49.938;2024-01-15T09:19:35;24.50;84.57
77523;SHT31;66637;-29.628;-49.938;2024-01-15T09:22:06;24.66;83.73
77523;SHT31;66637;-29.628;-49.938;2024-01-15T09:24:37;24.76;84.14
77523;SHT31;66637;-29.628;-49.938;2024-01-15T09:27:10;24.83;84.51
77523;SHT31;66637;-29.628;-49.938;2024-01-15T09:29:42;24.80;84.32
77523;SHT31;66637;-29.628;-49.938;2024-01-15T09:32:20;24.84;83.42
77523;SHT31;66637;-29.628;-49.938;2024-01-15T09:34:50;24.94;82.75
77523;SHT31;66637;-29.628;-49.938;2024-01-15T09:37:23;25.08;82.43
77523;SHT31;66637;-29.628;-49.938;2024-01-15T09:43:34;25.42;82.16
77523;SHT31;66637;-29.628;-49.938;2024-01-15T09:46:05;25.63;83.14
77523;SHT31;66637;-29.628;-49.938;2024-01-15T09:48:37;25.63;83.29
77523;SHT31;66637;-29.628;-49.938;2024-01-15T09:51:10;25.43;82.85
77523;SHT31;66637;-29.628;-49.938;2024-01-15T09:53:43;25.37;83.18
77523;SHT31;66637;-29.628;-49.938;2024-01-15T09:56:15;25.27;83.66
77523;SHT31;66637;-29.628;-49.938;2024-01-15T10:01:53;25.27;85.22
77523;SHT31;66637;-29.628;-49.938;2024-01-15T10:04:27;25.12;84.81
77523;SHT31;66637;-29.628;-49.938;2024-01-15T10:07:00;25.06;85.17
77523;SHT31;66637;-29.628;-49.938;2024-01-15T10:09:31;25.07;84.52
77523;SHT31;66637;-29.628;-49.938;2024-01-15T10:12:03;25.11;84.55
77523;SHT31;66637;-29.628;-49.938;2024-01-15T10:14:35;25.11;84.59
77523;SHT31;66637;-29.628;-49.938;2024-01-15T10:17:14;25.07;85.06
77523;SHT31;66637;-29.628;-49.938;2024-01-15T10:19:46;25.08;85.26
77523;SHT31;66637;-29.628;-49.938;2024-01-15T10:22:19;25.14;85.39
77523;SHT31;66637;-29.628;-49.938;2024-01-15T10:24:49;25.11;86.00
77523;SHT31;66637;-29.628;-49.938;2024-01-15T10:27:20;25.04;86.55
77523;SHT31;66637;-29.628;-49.938;2024-01-15T10:33:26;25.32;85.83
77523;SHT31;66637;-29.628;-49.938;2024-01-15T10:35:59;25.52;85.24
77523;SHT31;66637;-29.628;-49.938;2024-01-15T10:42:57;25.39;84.82
77523;SHT31;66637;-29.628;-49.938;2024-01-15T10:45:28;25.35;86.42
77523;SHT31;66637;-29.628;-49.938;2024-01-15T10:47:59;25.32;86.37
77523;SHT31;66637;-29.628;-49.938;2024-01-15T10:50:32;25.39;86.85
77523;SHT31;66637;-29.628;-49.938;2024-01-15T10:53:05;25.48;85.51
77523;SHT31;66637;-29.628;-49.938;2024-01-15T10:55:38;25.20;86.61
77523;SHT31;66637;-29.628;-49.938;2024-01-15T10:58:13;25.08;87.88
77523;SHT31;66637;-29.628;-49.938;2024-01-15T11:00:44;25.07;88.16
77523;SHT31;66637;-29.628;-49.938;2024-01-15T11:03:14;25.11;87.64
77523;SHT31;66637;-29.628;-49.938;2024-01-15T11:05:46;25.15;87.77
77523;SHT31;66637;-29.628;-49.938;2024-01-15T11:08:18;25.15;87.52
77523;SHT31;66637;-29.628;-49.938;2024-01-15T11:10:51;25.15;87.96
77523;SHT31;66637;-29.628;-49.938;2024-01-15T11:16:09;25.37;87.78
77523;SHT31;66637;-29.628;-49.938;2024-01-15T11:21:28;25.82;86.84
77523;SHT31;66637;-29.628;-49.938;2024-01-15T11:24:01;25.83;87.08
77523;SHT31;66637;-29.628;-49.938;2024-01-15T11:26:38;25.61;86.83
77523;SHT31;66637;-29.628;-49.938;2024-01-15T11:29:35;25.55;87.24
77523;SHT31;66637;-29.628;-49.938;2024-01-15T11:32:10;25.57;87.24
77523;SHT31;66637;-29.628;-49.938;2024-01-15T11:34:57;26.34;86.28
77523;SHT31;66637;-29.628;-49.938;2024-01-15T11:43:06;26.05;85.93
77523;SHT31;66637;-29.628;-49.938;2024-01-15T11:45:39;25.79;86.96
77523;SHT31;66637;-29.628;-49.938;2024-01-15T11:48:13;25.69;87.24
77523;SHT31;66637;-29.628;-49.938;2024-01-15T11:50:49;26.40;86.55
77523;SHT31;66637;-29.628;-49.938;2024-01-15T11:53:35;26.95;84.99
77523;SHT31;66637;-29.628;-49.938;2024-01-15T11:56:14;26.65;85.21
77523;SHT31;66637;-29.628;-49.938;2024-01-15T11:58:46;27.18;83.73
77523;SHT31;66637;-29.628;-49.938;2024-01-15T12:01:18;27.05;84.66
77523;SHT31;66637;-29.628;-49.938;2024-01-15T12:03:50;26.85;84.79
77523;SHT31;66637;-29.628;-49.938;2024-01-15T12:06:22;26.47;84.77
77523;SHT31;66637;-29.628;-49.938;2024-01-15T12:09:06;27.14;84.19
77523;SHT31;66637;-29.628;-49.938;2024-01-15T12:11:39;27.28;83.89
77523;SHT31;66637;-29.628;-49.938;2024-01-15T12:14:14;27.25;84.17
77523;SHT31;66637;-29.628;-49.938;2024-01-15T12:16:44;27.27;83.92
77523;SHT31;66637;-29.628;-49.938;2024-01-15T12:19:15;27.56;82.75
77523;SHT31;66637;-29.628;-49.938;2024-01-15T12:21:47;27.58;83.22
77523;SHT31;66637;-29.628;-49.938;2024-01-15T12:24:18;27.21;83.62
77523;SHT31;66637;-29.628;-49.938;2024-01-15T12:26:49;27.48;84.22
77523;SHT31;66637;-29.628;-49.938;2024-01-15T12:29:22;27.83;83.12
77523;SHT31;66637;-29.628;-49.938;2024-01-15T12:32:12;27.89;82.50
77523;SHT31;66637;-29.628;-49.938;2024-01-15T12:34:49;28.04;82.03
77523;SHT31;66637;-29.628;-49.938;2024-01-15T12:37:21;27.83;82.96
77523;SHT31;66637;-29.628;-49.938;2024-01-15T12:39:52;27.76;83.87
77523;SHT31;66637;-29.628;-49.938;2024-01-15T12:42:24;27.72;81.43
77523;SHT31;66637;-29.628;-49.938;2024-01-15T12:44:58;27.99;82.50
77523;SHT31;66637;-29.628;-49.938;2024-01-15T12:47:29;28.17;81.55
77523;SHT31;66637;-29.628;-49.938;2024-01-15T12:50:00;28.37;81.35
77523;SHT31;66637;-29.628;-49.938;2024-01-15T12:52:44;28.28;82.40
77523;SHT31;66637;-29.628;-49.938;2024-01-15T12:55:15;28.50;82.57
77523;SHT31;66637;-29.628;-49.938;2024-01-15T12:57:46;28.74;81.86
77523;SHT31;66637;-29.628;-49.938;2024-01-15T13:00:21;28.72;81.54
77523;SHT31;66637;-29.628;-49.938;2024-01-15T13:02:52;28.98;81.12
77523;SHT31;66637;-29.628;-49.938;2024-01-15T13:05:26;28.88;81.00
77523;SHT31;66637;-29.628;-49.938;2024-01-15T13:07:59;27.85;83.32
77523;SHT31;66637;-29.628;-49.938;2024-01-15T13:10:30;28.11;82.42
77523;SHT31;66637;-29.628;-49.938;2024-01-15T13:13:00;28.67;81.26
77523;SHT31;66637;-29.628;-49.938;2024-01-15T13:15:32;28.11;82.49
77523;SHT31;66637;-29.628;-49.938;2024-01-15T13:18:03;28.33;82.40
77523;SHT31;66637;-29.628;-49.938;2024-01-15T13:20:34;27.92;83.43
77523;SHT31;66637;-29.628;-49.938;2024-01-15T13:23:04;28.04;83.16
77523;SHT31;66637;-29.628;-49.938;2024-01-15T13:25:35;28.20;82.00
77523;SHT31;66637;-29.628;-49.938;2024-01-15T13:28:08;28.78;81.89
77523;SHT31;66637;-29.628;-49.938;2024-01-15T13:30:40;28.55;81.34
77523;SHT31;66637;-29.628;-49.938;2024-01-15T13:33:11;27.63;82.82
77523;SHT31;66637;-29.628;-49.938;2024-01-15T13:35:43;27.15;84.68
77523;SHT31;66637;-29.628;-49.938;2024-01-15T13:38:14;27.16;84.96
77523;SHT31;66637;-29.628;-49.938;2024-01-15T13:40:45;27.45;84.55
77523;SHT31;66637;-29.628;-49.938;2024-01-15T13:43:16;27.37;83.81
77523;SHT31;66637;-29.628;-49.938;2024-01-15T13:45:48;27.22;83.88
77523;SHT31;66637;-29.628;-49.938;2024-01-15T13:48:21;27.29;84.46
77523;SHT31;66637;-29.628;-49.938;2024-01-15T13:50:53;27.43;83.97
77523;SHT31;66637;-29.628;-49.938;2024-01-15T13:53:25;27.27;84.26
77523;SHT31;66637;-29.628;-49.938;2024-01-15T13:55:57;27.04;84.15
77523;SHT31;66637;-29.628;-49.938;2024-01-15T13:58:29;26.99;85.32
77523;SHT31;66637;-29.628;-49.938;2024-01-15T14:01:00;26.99;85.33
77523;SHT31;66637;-29.628;-49.938;2024-01-15T14:03:32;27.14;83.96
77523;SHT31;66637;-29.628;-49.938;2024-01-15T14:06:03;27.90;82.09
77523;SHT31;66637;-29.628;-49.938;2024-01-15T14:08:38;28.17;82.55
77523;SHT31;66637;-29.628;-49.938;2024-01-15T14:11:09;28.14;82.70
77523;SHT31;66637;-29.628;-49.938;2024-01-15T14:13:41;28.67;82.10
77523;SHT31;66637;-29.628;-49.938;2024-01-15T14:16:11;28.85;80.32
77523;SHT31;66637;-29.628;-49.938;2024-01-15T14:18:41;28.96;80.90
77523;SHT31;66637;-29.628;-49.938;2024-01-15T14:21:12;29.08;79.83
77523;SHT31;66637;-29.628;-49.938;2024-01-15T14:23:43;29.22;80.34
77523;SHT31;66637;-29.628;-49.938;2024-01-15T14:26:13;29.12;79.26
77523;SHT31;66637;-29.628;-49.938;2024-01-15T14:28:45;29.09;80.12
77523;SHT31;66637;-29.628;-49.938;2024-01-15T14:31:20;29.19;79.42
77523;SHT31;66637;-29.628;-49.938;2024-01-15T14:33:50;28.90;79.15
77523;SHT31;66637;-29.628;-49.938;2024-01-15T14:36:21;28.75;79.61
77523;SHT31;66637;-29.628;-49.938;2024-01-15T14:38:51;28.64;80.62
77523;SHT31;66637;-29.628;-49.938;2024-01-15T14:41:24;28.43;82.28
77523;SHT31;66637;-29.628;-49.938;2024-01-15T14:43:54;29.09;79.93
77523;SHT31;66637;-29.628;-49.938;2024-01-15T14:46:25;29.45;79.26
77523;SHT31;66637;-29.628;-49.938;2024-01-15T14:48:57;29.73;76.35
77523;SHT31;66637;-29.628;-49.938;2024-01-15T14:51:28;29.37;77.12
77523;SHT31;66637;-29.628;-49.938;2024-01-15T14:54:01;29.25;80.86
77523;SHT31;66637;-29.628;-49.938;2024-01-15T14:56:32;29.29;79.30
77523;SHT31;66637;-29.628;-49.938;2024-01-15T14:59:03;29.39;77.88
77523;SHT31;66637;-29.628;-49.938;2024-01-15T15:01:35;29.06;78.65
77523;SHT31;66637;-29.628;-49.938;2024-01-15T15:04:05;28.98;80.61
77523;SHT31;66637;-29.628;-49.938;2024-01-15T15:06:36;29.20;80.27
77523;SHT31;66637;-29.628;-49.938;2024-01-15T15:09:07;29.01;80.16
77523;SHT31;66637;-29.628;-49.938;2024-01-15T15:11:41;29.20;79.33
77523;SHT31;66637;-29.628;-49.938;2024-01-15T15:14:11;28.68;80.89
77523;SHT31;66637;-29.628;-49.938;2024-01-15T15:16:41;28.67;82.25
77523;SHT31;66637;-29.628;-49.938;2024-01-15T15:19:12;28.51;81.65
77523;SHT31;66637;-29.628;-49.938;2024-01-15T15:21:42;28.84;81.45
77523;SHT31;66637;-29.628;-49.938;2024-01-15T15:24:13;28.62;81.86
77523;SHT31;66637;-29.628;-49.938;2024-01-15T15:26:43;28.40;82.46
77523;SHT31;66637;-29.628;-49.938;2024-01-15T15:29:13;28.41;82.33
77523;SHT31;66637;-29.628;-49.938;2024-01-15T15:31:46;28.36;81.53
77523;SHT31;66637;-29.628;-49.938;2024-01-15T15:34:19;28.36;81.51
77523;SHT31;66637;-29.628;-49.938;2024-01-15T15:36:49;28.40;82.17
77523;SHT31;66637;-29.628;-49.938;2024-01-15T15:39:19;28.34;81.75
77523;SHT31;66637;-29.628;-49.938;2024-01-15T15:41:50;28.16;82.45
77523;SHT31;66637;-29.628;-49.938;2024-01-15T15:44:20;27.99;83.00
77523;SHT31;66637;-29.628;-49.938;2024-01-15T15:46:50;28.51;82.27
77523;SHT31;66637;-29.628;-49.938;2024-01-15T15:49:23;28.60;81.86
77523;SHT31;66637;-29.628;-49.938;2024-01-15T15:51:54;28.58;81.48
77523;SHT31;66637;-29.628;-49.938;2024-01-15T15:54:24;28.67;81.86
77523;SHT31;66637;-29.628;-49.938;2024-01-15T15:56:55;28.67;82.48
77523;SHT31;66637;-29.628;-49.938;2024-01-15T15:59:26;28.74;81.34
77523;SHT31;66637;-29.628;-49.938;2024-01-15T16:01:58;28.76;80.59